Time;durP1;ratioP1;P1;durP2;ratioP2;P2;SDS_P1;SDS_P2;PMS_P1;PMS_P2;Temp;Humidity;BMP_temperature;BMP_pressure;BME280_temperature;BME280_humidity;BME280_pressure;Samples;Min_cycle;Max_cycle;Signal;HPM_P1;HPM_P2
2021/01/19 00:02:02;;;;;;;0.85;0.85;;;6.30;99.90;;;;;;5075126;28;20155;-78
2021/01/19 00:04:28;;;;;;;0.55;0.55;;;6.10;99.90;;;;;;5075227;28;20626;-78
2021/01/19 00:06:54;;;;;;;0.98;0.75;;;6.10;99.90;;;;;;5075064;28;20211;-77
2021/01/19 00:09:19;;;;;;;0.40;0.40;;;6.20;99.90;;;;;;5075061;28;20232;-77
2021/01/19 00:11:45;;;;;;;1.27;1.27;;;6.10;99.90;;;;;;5075040;28;20185;-77
2021/01/19 00:14:10;;;;;;;0.30;0.30;;;6.10;99.90;;;;;;5075105;28;20167;-80
2021/01/19 00:16:36;;;;;;;1.15;1.15;;;5.90;99.90;;;;;;5074716;28;20193;-78
2021/01/19 00:19:01;;;;;;;1.67;1.63;;;5.70;99.90;;;;;;5074697;28;20190;-76
2021/01/19 00:21:27;;;;;;;0.68;0.50;;;5.80;99.90;;;;;;5074317;28;20166;-76
2021/01/19 00:23:52;;;;;;;4.47;2.05;;;5.70;99.90;;;;;;5074411;28;20556;-77
2021/01/19 00:26:18;;;;;;;5.10;1.85;;;5.80;99.90;;;;;;5074462;28;20209;-77
2021/01/19 00:28:44;;;;;;;2.22;0.98;;;5.70;99.90;;;;;;5074649;28;20166;-77
2021/01/19 00:31:11;;;;;;;0.20;0.20;;;5.70;99.90;;;;;;5074406;28;20166;-77
2021/01/19 00:33:37;;;;;;;3.35;0.55;;;5.70;99.90;;;;;;5074039;28;20162;-77
2021/01/19 00:36:02;;;;;;;2.20;1.27;;;5.70;99.90;;;;;;5073065;28;20194;-77
2021/01/19 00:38:28;;;;;;;7.07;0.82;;;5.70;99.90;;;;;;5074147;28;20194;-77
2021/01/19 00:40:54;;;;;;;1.05;1.05;;;5.60;99.90;;;;;;5056353;28;20170;-77
2021/01/19 00:43:19;;;;;;;1.17;1.05;;;5.50;99.90;;;;;;5074289;28;20177;-76
2021/01/19 00:45:45;;;;;;;0.65;0.65;;;5.50;99.90;;;;;;5073892;28;20539;-76
2021/01/19 00:48:10;;;;;;;0.80;0.80;;;5.60;99.90;;;;;;5073889;28;20173;-78
2021/01/19 00:50:36;;;;;;;0.68;0.68;;;5.60;99.90;;;;;;5073942;28;20170;-77
2021/01/19 00:53:02;;;;;;;0.45;0.45;;;5.90;99.90;;;;;;5074294;28;20221;-77
2021/01/19 00:55:28;;;;;;;0.45;0.45;;;5.90;99.90;;;;;;5073743;28;20199;-77
2021/01/19 00:57:53;;;;;;;4.35;0.57;;;5.90;99.90;;;;;;5073700;28;20545;-78
2021/01/19 01:00:19;;;;;;;0.73;0.73;;;5.90;99.90;;;;;;5073970;28;20188;-77
2021/01/19 01:02:45;;;;;;;1.58;1.02;;;5.90;99.90;;;;;;5073663;28;20199;-76
2021/01/19 01:05:11;;;;;;;0.80;0.80;;;6.00;99.90;;;;;;5073623;28;20574;-76
2021/01/19 01:07:39;;;;;;;0.63;0.63;;;5.90;99.90;;;;;;5073832;28;20634;-77
2021/01/19 01:10:08;;;;;;;1.35;0.82;;;5.90;99.90;;;;;;5073613;28;20163;-77
2021/01/19 01:12:34;;;;;;;32.22;0.82;;;5.90;99.90;;;;;;5073685;28;20161;-77
2021/01/19 01:15:00;;;;;;;1.42;1.23;;;6.00;99.90;;;;;;5073739;28;20182;-77
2021/01/19 01:17:26;;;;;;;0.50;0.50;;;6.10;99.90;;;;;;5073695;28;20169;-77
2021/01/19 01:19:52;;;;;;;0.50;0.50;;;6.20;99.90;;;;;;5073453;28;20210;-77
2021/01/19 01:22:18;;;;;;;0.95;0.95;;;6.20;99.90;;;;;;5073947;28;20184;-77
2021/01/19 01:24:43;;;;;;;0.22;0.22;;;6.10;99.90;;;;;;5073213;28;20248;-77
2021/01/19 01:27:09;;;;;;;1.85;1.10;;;6.20;99.90;;;;;;5073399;28;20205;-77
2021/01/19 01:29:34;;;;;;;0.93;0.93;;;6.00;99.90;;;;;;5073615;28;20162;-77
2021/01/19 01:32:00;;;;;;;0.43;0.43;;;6.10;99.90;;;;;;5073570;28;20171;-77
2021/01/19 01:34:25;;;;;;;2.38;0.93;;;6.20;99.90;;;;;;5073281;28;20648;-77
2021/01/19 01:36:51;;;;;;;0.57;0.57;;;6.10;99.90;;;;;;5073340;28;20171;-77
2021/01/19 01:39:16;;;;;;;0.50;0.50;;;6.20;99.90;;;;;;5073412;28;20209;-76
2021/01/19 01:41:42;;;;;;;0.73;0.73;;;6.30;99.90;;;;;;5073354;28;20177;-77
2021/01/19 01:44:08;;;;;;;8.63;1.15;;;6.40;99.90;;;;;;5073440;28;20167;-77
2021/01/19 01:46:35;;;;;;;1.40;1.02;;;6.30;99.90;;;;;;5075177;28;20269;-77
2021/01/19 01:49:01;;;;;;;7.97;1.75;;;6.10;99.90;;;;;;5077712;28;20151;-77
2021/01/19 01:51:28;;;;;;;0.28;0.28;;;6.10;99.90;;;;;;5077406;28;20174;-77
2021/01/19 01:53:56;;;;;;;0.47;0.47;;;6.30;99.90;;;;;;5077478;28;20253;-76
2021/01/19 01:56:22;;;;;;;20.38;1.38;;;6.30;99.90;;;;;;5077216;28;20188;-76
2021/01/19 01:58:51;;;;;;;1.38;1.27;;;6.20;99.90;;;;;;5077065;28;20182;-77
2021/01/19 02:01:16;;;;;;;0.30;0.30;;;6.10;99.90;;;;;;5077188;28;20249;-77
2021/01/19 02:03:42;;;;;;;2.15;1.10;;;6.20;99.90;;;;;;5076956;28;20250;-77
2021/01/19 02:06:07;;;;;;;0.40;0.40;;;6.10;99.90;;;;;;5077119;28;20258;-77
2021/01/19 02:08:51;;;;;;;0.30;0.30;;;6.00;99.90;;;;;;5077246;28;20174;-74
2021/01/19 02:11:57;;;;;;;1.05;0.88;;;6.10;99.90;;;;;;5077210;28;20657;-77
2021/01/19 02:14:35;;;;;;;3.83;1.65;;;6.20;99.90;;;;;;5076964;28;20162;-77
2021/01/19 02:17:38;;;;;;;0.60;0.60;;;6.30;99.90;;;;;;5076916;28;20178;-77
2021/01/19 02:20:07;;;;;;;0.20;0.20;;;6.20;99.90;;;;;;5076575;28;20558;-77
2021/01/19 02:22:44;;;;;;;0.77;0.77;;;6.30;99.90;;;;;;5076969;28;20171;-77
2021/01/19 02:25:17;;;;;;;2.00;1.90;;;6.30;99.90;;;;;;5076593;28;20205;-77
2021/01/19 02:28:04;;;;;;;0.40;0.40;;;6.20;99.90;;;;;;5076625;28;20549;-77
2021/01/19 02:30:52;;;;;;;0.50;0.50;;;6.20;99.90;;;;;;5076618;28;20171;-77
2021/01/19 02:33:43;;;;;;;9.80;2.80;;;6.20;99.90;;;;;;5076842;28;20220;-76
2021/01/19 02:36:21;;;;;;;2.72;1.00;;;6.20;99.90;;;;;;5076570;28;20515;-77
2021/01/19 02:38:56;;;;;;;0.20;0.20;;;6.10;99.90;;;;;;5076348;28;20666;-77
2021/01/19 02:41:23;;;;;;;4.68;2.40;;;6.10;99.90;;;;;;5076505;28;20165;-76
2021/01/19 02:44:15;;;;;;;2.42;1.02;;;6.20;99.90;;;;;;5076438;28;20249;-77
2021/01/19 02:46:40;;;;;;;1.08;0.73;;;6.20;99.90;;;;;;5076499;28;20187;-77
2021/01/19 02:49:06;;;;;;;0.30;0.30;;;6.20;99.90;;;;;;5076388;28;20225;-77
2021/01/19 02:51:33;;;;;;;0.25;0.25;;;6.10;99.90;;;;;;5076153;28;20249;-78
2021/01/19 02:53:59;;;;;;;3.40;1.42;;;6.10;99.90;;;;;;5076429;28;20198;-77
2021/01/19 02:56:52;;;;;;;0.80;0.63;;;6.10;99.90;;;;;;5075550;28;20225;-77
2021/01/19 02:59:30;;;;;;;0.65;0.65;;;6.00;99.90;;;;;;5076237;28;20199;-77
2021/01/19 03:02:06;;;;;;;0.88;0.88;;;6.00;99.90;;;;;;5076332;28;20241;-77
2021/01/19 03:04:33;;;;;;;0.60;0.60;;;6.00;99.90;;;;;;5076090;28;20554;-78
2021/01/19 03:07:08;;;;;;;0.35;0.35;;;6.00;99.90;;;;;;5076026;28;20162;-77
2021/01/19 03:09:39;;;;;;;1.17;0.85;;;6.10;99.90;;;;;;5075950;28;20162;-78
2021/01/19 03:12:12;;;;;;;0.45;0.45;;;6.10;99.90;;;;;;5076098;28;20158;-77
2021/01/19 03:14:37;;;;;;;0.45;0.45;;;5.90;99.90;;;;;;5076026;28;20178;-77
2021/01/19 03:17:05;;;;;;;1.23;1.23;;;5.90;99.90;;;;;;5076165;28;20162;-77
2021/01/19 03:19:36;;;;;;;0.70;0.70;;;5.90;99.90;;;;;;5075835;28;20198;-76
2021/01/19 03:22:02;;;;;;;0.75;0.75;;;6.00;99.90;;;;;;5076028;28;20258;-76
2021/01/19 03:24:28;;;;;;;0.40;0.40;;;6.00;99.90;;;;;;5075447;28;20261;-77
2021/01/19 03:26:53;;;;;;;0.28;0.28;;;6.00;99.90;;;;;;5075714;28;20182;-76
2021/01/19 03:29:19;;;;;;;0.20;0.20;;;6.10;99.90;;;;;;5075667;28;20163;-76
2021/01/19 03:31:44;;;;;;;17.83;1.00;;;6.20;99.90;;;;;;5075550;28;20168;-77
2021/01/19 03:34:10;;;;;;;0.77;0.77;;;6.00;99.90;;;;;;5057836;28;20629;-76
2021/01/19 03:36:35;;;;;;;0.88;0.88;;;6.10;99.90;;;;;;5075229;28;20511;-77
2021/01/19 03:39:01;;;;;;;0.52;0.45;;;6.00;99.90;;;;;;5075570;28;20252;-77
2021/01/19 03:41:26;;;;;;;1.90;1.02;;;6.10;99.90;;;;;;5075345;28;20167;-77
2021/01/19 03:43:52;;;;;;;4.40;1.60;;;6.10;99.90;;;;;;5075412;28;20224;-76
2021/01/19 03:46:18;;;;;;;0.98;0.98;;;6.10;99.90;;;;;;5075110;28;20190;-75
2021/01/19 03:48:43;;;;;;;1.08;1.08;;;6.10;99.90;;;;;;5075159;28;20181;-76
2021/01/19 03:51:09;;;;;;;2.70;1.80;;;6.10;99.90;;;;;;5075242;28;20192;-75
2021/01/19 03:53:34;;;;;;;0.30;0.30;;;6.00;99.90;;;;;;5075471;28;20174;-76
2021/01/19 03:56:00;;;;;;;6.65;1.85;;;6.20;99.90;;;;;;5075388;28;20304;-76
2021/01/19 03:58:25;;;;;;;0.30;0.30;;;6.30;99.90;;;;;;5075359;28;20186;-76
2021/01/19 04:00:51;;;;;;;0.40;0.40;;;6.30;99.90;;;;;;5075120;28;20170;-77
2021/01/19 04:03:16;;;;;;;2.75;1.20;;;6.20;99.90;;;;;;5074824;28;20174;-76
2021/01/19 04:05:42;;;;;;;0.30;0.30;;;6.30;99.90;;;;;;5074978;28;20201;-76
2021/01/19 04:08:07;;;;;;;1.88;0.85;;;6.30;99.90;;;;;;5074215;28;20167;-76
2021/01/19 04:10:33;;;;;;;0.40;0.40;;;6.30;99.90;;;;;;5074424;28;20174;-76
2021/01/19 04:12:58;;;;;;;3.92;1.95;;;6.30;99.90;;;;;;5074543;28;20153;-77
2021/01/19 04:15:25;;;;;;;1.48;1.38;;;6.30;99.90;;;;;;5074641;28;20244;-77
2021/01/19 04:17:51;;;;;;;0.32;0.32;;;6.40;99.90;;;;;;5074470;28;20663;-77
2021/01/19 04:20:17;;;;;;;0.60;0.60;;;6.50;99.90;;;;;;5074060;28;20206;-75
2021/01/19 04:22:43;;;;;;;0.60;0.60;;;6.60;99.90;;;;;;5074216;28;20294;-74
2021/01/19 04:25:08;;;;;;;1.05;1.05;;;6.60;99.90;;;;;;5073983;28;20205;-75
2021/01/19 04:27:34;;;;;;;9.23;1.92;;;6.60;99.90;;;;;;5074284;28;20249;-76
2021/01/19 04:30:04;;;;;;;1.52;1.42;;;6.50;99.90;;;;;;5074448;28;20198;-76
2021/01/19 04:32:29;;;;;;;9.55;1.35;;;6.50;99.90;;;;;;5074602;28;20518;-77
2021/01/19 04:34:55;;;;;;;0.40;0.40;;;6.40;99.90;;;;;;5074256;28;20265;-76
2021/01/19 04:37:21;;;;;;;1.42;1.33;;;6.40;99.90;;;;;;5073898;28;20201;-75
2021/01/19 04:39:47;;;;;;;0.30;0.30;;;6.50;99.90;;;;;;5073612;28;20281;-77
2021/01/19 04:42:17;;;;;;;0.20;0.20;;;6.60;99.90;;;;;;5073679;28;20186;-76
2021/01/19 04:44:44;;;;;;;0.75;0.75;;;6.60;99.90;;;;;;5073527;28;20186;-77
2021/01/19 04:47:11;;;;;;;0.30;0.30;;;6.60;99.90;;;;;;5073704;28;20527;-77
2021/01/19 04:49:38;;;;;;;5.28;1.60;;;6.60;99.90;;;;;;5073899;28;20243;-77
2021/01/19 04:52:04;;;;;;;2.70;1.35;;;6.70;99.90;;;;;;5074100;28;20200;-78
2021/01/19 04:54:52;;;;;;;1.45;1.45;;;6.80;99.90;;;;;;5073821;28;20170;-77
2021/01/19 04:57:22;;;;;;;0.38;0.38;;;6.70;99.90;;;;;;5073603;28;20173;-77
2021/01/19 04:59:52;;;;;;;1.33;1.23;;;6.60;99.90;;;;;;5073973;28;20251;-77
2021/01/19 05:02:35;;;;;;;0.20;0.20;;;6.60;99.90;;;;;;5073876;28;20158;-78
2021/01/19 05:05:22;;;;;;;0.55;0.55;;;6.70;99.90;;;;;;5073613;28;20188;-77
2021/01/19 05:08:02;;;;;;;0.20;0.20;;;6.80;99.90;;;;;;5074000;28;20170;-77
2021/01/19 05:10:34;;;;;;;0.35;0.35;;;6.80;99.90;;;;;;5073604;28;20689;-76
2021/01/19 05:13:11;;;;;;;0.50;0.50;;;6.70;99.90;;;;;;5073823;28;20166;-76
2021/01/19 05:15:44;;;;;;;0.68;0.68;;;6.70;99.90;;;;;;5073728;28;20189;-75
2021/01/19 05:18:11;;;;;;;0.98;0.93;;;6.70;99.90;;;;;;5073400;28;20241;-76
2021/01/19 05:20:45;;;;;;;0.40;0.40;;;6.70;99.90;;;;;;5073496;28;20169;-77
2021/01/19 05:23:21;;;;;;;1.60;1.10;;;6.70;99.90;;;;;;5073178;28;20214;-76
2021/01/19 05:25:51;;;;;;;2.72;1.33;;;6.80;99.90;;;;;;5073321;28;20354;-76
2021/01/19 05:28:17;;;;;;;0.65;0.65;;;6.70;99.90;;;;;;5073033;28;20240;-76
2021/01/19 05:30:50;;;;;;;0.73;0.73;;;6.60;99.90;;;;;;5073347;28;20565;-76
2021/01/19 05:33:16;;;;;;;0.20;0.20;;;6.70;99.90;;;;;;5073379;28;20492;-76
2021/01/19 05:35:41;;;;;;;0.43;0.43;;;6.70;99.90;;;;;;5073354;28;20232;-76
2021/01/19 05:38:07;;;;;;;0.70;0.70;;;6.80;99.90;;;;;;5073375;28;20170;-75
2021/01/19 05:40:42;;;;;;;0.30;0.30;;;6.80;99.90;;;;;;5073381;28;20656;-74
2021/01/19 05:43:10;;;;;;;0.20;0.20;;;6.80;99.90;;;;;;5073326;28;21009;-76
2021/01/19 05:45:35;;;;;;;0.20;0.20;;;6.80;99.90;;;;;;5073283;28;20200;-77
2021/01/19 05:48:12;;;;;;;11.20;1.38;;;6.80;99.90;;;;;;5073205;28;20163;-77
2021/01/19 05:50:38;;;;;;;0.30;0.30;;;6.80;99.90;;;;;;5073359;28;20170;-77
2021/01/19 05:53:12;;;;;;;4.00;0.95;;;6.70;99.90;;;;;;5073480;28;20170;-77
2021/01/19 05:55:42;;;;;;;1.08;0.95;;;6.70;99.90;;;;;;5073082;28;20190;-77
2021/01/19 05:58:15;;;;;;;0.40;0.40;;;6.80;99.90;;;;;;5072886;28;20215;-76
2021/01/19 06:00:41;;;;;;;3.85;0.57;;;6.70;99.90;;;;;;5073064;28;20645;-77
2021/01/19 06:03:15;;;;;;;0.30;0.30;;;6.70;99.90;;;;;;5072879;28;20657;-75
2021/01/19 06:05:40;;;;;;;0.93;0.85;;;6.70;99.90;;;;;;5072858;28;20221;-77
2021/01/19 06:08:09;;;;;;;0.45;0.45;;;6.60;99.90;;;;;;5072793;28;20251;-77
2021/01/19 06:10:35;;;;;;;0.20;0.20;;;6.80;99.90;;;;;;5072981;28;20163;-76
2021/01/19 06:13:02;;;;;;;0.20;0.20;;;6.70;99.90;;;;;;5072707;28;20203;-77
2021/01/19 06:15:29;;;;;;;0.60;0.60;;;6.70;99.90;;;;;;5072602;28;20216;-77
2021/01/19 06:17:54;;;;;;;0.57;0.57;;;6.70;99.90;;;;;;5072758;28;20159;-77
2021/01/19 06:20:20;;;;;;;0.30;0.30;;;6.80;99.90;;;;;;5072442;28;20216;-77
2021/01/19 06:22:46;;;;;;;1.10;1.10;;;6.80;99.90;;;;;;5073071;28;20241;-76
2021/01/19 06:25:13;;;;;;;0.20;0.20;;;6.70;99.90;;;;;;5072554;28;20203;-76
2021/01/19 06:27:40;;;;;;;0.30;0.30;;;6.80;99.90;;;;;;5072840;28;20158;-77
2021/01/19 06:30:11;;;;;;;0.15;0.15;;;6.80;99.90;;;;;;5072385;28;20170;-77
2021/01/19 06:32:47;;;;;;;0.50;0.50;;;6.80;99.90;;;;;;5074865;28;20166;-77
2021/01/19 06:35:23;;;;;;;1.90;0.85;;;6.80;99.90;;;;;;5076553;28;20182;-78
2021/01/19 06:37:53;;;;;;;0.17;0.17;;;6.80;99.90;;;;;;5076308;28;20162;-77
2021/01/19 06:40:21;;;;;;;0.35;0.35;;;6.80;99.90;;;;;;5075948;28;20199;-77
2021/01/19 06:42:57;;;;;;;0.30;0.30;;;6.70;99.90;;;;;;5076383;28;20171;-77
2021/01/19 06:45:24;;;;;;;1.35;1.25;;;6.70;99.90;;;;;;5075888;28;20239;-77
2021/01/19 06:47:51;;;;;;;0.10;0.10;;;6.70;99.90;;;;;;5076034;28;20184;-77
2021/01/19 06:50:23;;;;;;;0.20;0.20;;;6.60;99.90;;;;;;5076017;28;20699;-76
2021/01/19 06:53:13;;;;;;;0.40;0.40;;;6.70;99.90;;;;;;5076333;28;20198;-76
2021/01/19 06:55:58;;;;;;;0.30;0.30;;;6.60;99.90;;;;;;5057947;28;20194;-78
2021/01/19 06:58:46;;;;;;;0.20;0.20;;;6.60;99.90;;;;;;5061368;28;20202;-78
2021/01/19 07:01:16;;;;;;;0.10;0.10;;;6.70;99.90;;;;;;5075841;28;20664;-78
2021/01/19 07:03:43;;;;;;;0.73;0.73;;;6.70;99.90;;;;;;5075816;28;20163;-79
2021/01/19 07:06:11;;;;;;;0.20;0.20;;;6.70;99.90;;;;;;5075869;28;20189;-75
2021/01/19 07:09:15;;;;;;;0.20;0.20;;;6.80;99.90;;;;;;5075237;28;20177;-76
2021/01/19 07:12:10;;;;;;;0.15;0.15;;;6.70;99.90;;;;;;5075732;28;20170;-76
2021/01/19 07:14:39;;;;;;;1.55;1.27;;;6.70;99.90;;;;;;5075171;28;20167;-78
2021/01/19 07:17:18;;;;;;;0.20;0.20;;;6.70;99.90;;;;;;5074924;28;20166;-77
2021/01/19 07:19:53;;;;;;;11.18;2.28;;;6.60;99.90;;;;;;5072856;28;20673;-77
2021/01/19 07:22:46;;;;;;;9.13;0.98;;;6.60;99.90;;;;;;5074827;28;20245;-76
2021/01/19 07:25:12;;;;;;;0.10;0.10;;;6.70;99.90;;;;;;5074650;28;20228;-78
2021/01/19 07:27:38;;;;;;;1.52;0.63;;;6.70;99.90;;;;;;5074898;28;20294;-79
2021/01/19 07:30:06;;;;;;;4.95;1.58;;;6.70;99.90;;;;;;5074636;28;20171;-77
2021/01/19 07:32:33;;;;;;;0.20;0.20;;;6.70;99.90;;;;;;5074537;28;20151;-77
2021/01/19 07:34:59;;;;;;;0.20;0.20;;;6.70;99.90;;;;;;5074508;28;20186;-76
2021/01/19 07:37:36;;;;;;;0.32;0.32;;;6.80;99.90;;;;;;5074481;28;20239;-77
2021/01/19 07:40:04;;;;;;;0.47;0.47;;;6.80;99.90;;;;;;5074543;28;20684;-76
2021/01/19 07:42:33;;;;;;;0.13;0.13;;;6.80;99.90;;;;;;5074363;28;20259;-76
2021/01/19 07:45:04;;;;;;;0.38;0.38;;;6.80;99.90;;;;;;5074342;28;20212;-77
2021/01/19 07:47:41;;;;;;;1.45;0.57;;;6.90;99.90;;;;;;5073410;28;20175;-78
2021/01/19 07:50:15;;;;;;;0.20;0.20;;;6.90;99.90;;;;;;5074545;28;20170;-78
2021/01/19 07:52:43;;;;;;;0.10;0.10;;;6.80;99.90;;;;;;5074897;28;20636;-76
2021/01/19 07:55:23;;;;;;;0.10;0.10;;;6.80;99.90;;;;;;5074465;28;20277;-78
2021/01/19 07:57:52;;;;;;;0.50;0.50;;;6.80;99.90;;;;;;5074371;28;20157;-76
2021/01/19 08:00:25;;;;;;;0.20;0.20;;;6.80;99.90;;;;;;5074329;28;20677;-76
2021/01/19 08:03:04;;;;;;;1.27;0.40;;;6.90;99.90;;;;;;5074537;28;20182;-76
2021/01/19 08:05:30;;;;;;;0.20;0.20;;;6.90;99.90;;;;;;5074273;28;20194;-75
2021/01/19 08:07:57;;;;;;;0.73;0.73;;;6.90;99.90;;;;;;5080021;28;20176;-75
2021/01/19 08:10:32;;;;;;;0.98;0.85;;;6.90;99.90;;;;;;5082886;28;20253;-76
2021/01/19 08:12:59;;;;;;;7.47;2.75;;;7.00;99.90;;;;;;5074206;28;20151;-77
2021/01/19 08:15:33;;;;;;;0.63;0.63;;;7.10;99.90;;;;;;5074309;28;20270;-78
2021/01/19 08:18:00;;;;;;;2.65;0.40;;;7.00;99.90;;;;;;5074735;28;20162;-80
2021/01/19 08:20:31;;;;;;;0.20;0.20;;;7.10;99.90;;;;;;5074096;28;20237;-81
2021/01/19 08:23:17;;;;;;;0.30;0.30;;;7.10;99.90;;;;;;5074138;28;20690;-77
2021/01/19 08:25:43;;;;;;;0.60;0.60;;;7.10;99.90;;;;;;5074116;28;20236;-78
2021/01/19 08:28:10;;;;;;;0.10;0.10;;;7.20;99.90;;;;;;5073672;28;20163;-77
2021/01/19 08:30:38;;;;;;;0.10;0.10;;;7.20;99.90;;;;;;5073999;28;20163;-78
2021/01/19 08:33:04;;;;;;;0.30;0.30;;;7.20;99.90;;;;;;5073562;28;20162;-77
2021/01/19 08:35:31;;;;;;;0.10;0.10;;;7.30;99.90;;;;;;5073655;28;20316;-77
2021/01/19 08:37:58;;;;;;;0.60;0.60;;;7.30;99.90;;;;;;5073781;28;20257;-75
2021/01/19 08:40:27;;;;;;;2.08;1.58;;;7.20;99.90;;;;;;5073329;28;20202;-76
2021/01/19 08:42:55;;;;;;;0.75;0.68;;;7.20;99.90;;;;;;5073881;28;20510;-77
2021/01/19 08:45:32;;;;;;;0.28;0.28;;;7.20;99.90;;;;;;5073505;28;20309;-74
2021/01/19 08:48:00;;;;;;;0.20;0.20;;;7.30;99.90;;;;;;5073588;28;20253;-76
2021/01/19 08:50:28;;;;;;;1.08;0.68;;;7.30;99.90;;;;;;5073513;28;20208;-78
2021/01/19 08:52:54;;;;;;;0.13;0.13;;;7.40;99.90;;;;;;5074075;28;20174;-77
2021/01/19 08:55:24;;;;;;;0.13;0.13;;;7.40;99.90;;;;;;5073327;28;20183;-77
2021/01/19 08:57:58;;;;;;;0.20;0.20;;;7.50;99.90;;;;;;5073710;28;20693;-78
2021/01/19 09:00:29;;;;;;;0.22;0.22;;;7.50;99.90;;;;;;5069527;28;20214;-78
2021/01/19 09:02:57;;;;;;;0.30;0.30;;;7.50;99.90;;;;;;5071633;28;20610;-77
2021/01/19 09:05:24;;;;;;;0.20;0.20;;;7.50;99.90;;;;;;5071685;28;20179;-76
2021/01/19 09:07:50;;;;;;;1.30;0.35;;;7.60;99.90;;;;;;5072417;28;20629;-77
2021/01/19 09:10:26;;;;;;;0.52;0.52;;;7.70;99.90;;;;;;5071908;28;20166;-77
2021/01/19 09:12:53;;;;;;;0.20;0.20;;;7.80;99.90;;;;;;5069718;28;20168;-75
2021/01/19 09:15:19;;;;;;;0.15;0.15;;;7.90;99.90;;;;;;5071533;28;20238;-75
2021/01/19 09:17:58;;;;;;;0.20;0.20;;;7.90;99.90;;;;;;5071356;28;20223;-75
2021/01/19 09:20:26;;;;;;;0.93;0.80;;;8.00;99.90;;;;;;5070684;28;20717;-77
2021/01/19 09:22:52;;;;;;;0.38;0.38;;;8.00;99.90;;;;;;5071927;28;20178;-75
2021/01/19 09:25:20;;;;;;;0.30;0.30;;;8.00;99.90;;;;;;5071687;28;20206;-76
2021/01/19 09:27:46;;;;;;;0.35;0.32;;;8.00;99.90;;;;;;5071316;28;20632;-76
2021/01/19 09:30:14;;;;;;;0.50;0.50;;;8.00;99.90;;;;;;5070494;28;20178;-75
2021/01/19 09:32:43;;;;;;;0.45;0.45;;;8.10;99.90;;;;;;5071952;28;20154;-75
2021/01/19 09:35:10;;;;;;;0.40;0.40;;;8.10;99.90;;;;;;5071688;28;20178;-74
2021/01/19 09:37:35;;;;;;;0.10;0.10;;;8.10;99.90;;;;;;5071301;28;20634;-75
2021/01/19 09:40:02;;;;;;;0.10;0.10;;;8.20;99.90;;;;;;5070741;28;20226;-74
2021/01/19 09:42:28;;;;;;;0.20;0.20;;;8.20;99.90;;;;;;5071817;28;20327;-77
2021/01/19 09:44:54;;;;;;;0.30;0.30;;;8.20;99.90;;;;;;5071348;28;20217;-75
2021/01/19 09:47:25;;;;;;;0.43;0.43;;;8.20;99.90;;;;;;5070905;28;20208;-75
2021/01/19 09:49:53;;;;;;;0.20;0.20;;;8.20;99.90;;;;;;5071620;28;20159;-75
2021/01/19 09:52:19;;;;;;;0.38;0.38;;;8.30;99.90;;;;;;5071539;28;20167;-74
2021/01/19 09:54:45;;;;;;;0.30;0.30;;;8.30;99.90;;;;;;5053577;28;20206;-75
2021/01/19 09:57:11;;;;;;;0.10;0.10;;;8.40;99.90;;;;;;5070880;28;20163;-75
2021/01/19 09:59:39;;;;;;;0.10;0.10;;;8.50;99.90;;;;;;5071288;28;20202;-75
2021/01/19 10:02:05;;;;;;;0.45;0.45;;;8.60;99.90;;;;;;5070842;28;20607;-75
2021/01/19 10:04:31;;;;;;;0.20;0.20;;;8.50;99.90;;;;;;5071316;28;20170;-74
2021/01/19 10:07:05;;;;;;;0.13;0.13;;;8.60;99.90;;;;;;5071538;28;20513;-74
2021/01/19 10:09:31;;;;;;;0.25;0.25;;;8.60;99.90;;;;;;5075368;28;20184;-75
2021/01/19 10:11:59;;;;;;;0.20;0.20;;;8.60;99.90;;;;;;5075047;28;20533;-76
2021/01/19 10:14:34;;;;;;;0.40;0.40;;;8.70;99.90;;;;;;5074937;28;20174;-74
2021/01/19 10:17:01;;;;;;;0.17;0.17;;;8.80;99.90;;;;;;5074811;28;20170;-74
2021/01/19 10:19:31;;;;;;;1.10;0.77;;;8.60;99.90;;;;;;5075221;28;20197;-74
2021/01/19 10:21:59;;;;;;;0.10;0.10;;;8.60;99.90;;;;;;5074836;28;20610;-74
2021/01/19 10:24:25;;;;;;;0.20;0.20;;;8.70;99.90;;;;;;5074174;28;20218;-75
2021/01/19 10:27:08;;;;;;;0.30;0.30;;;8.80;99.90;;;;;;5074706;28;20249;-75
2021/01/19 10:29:42;;;;;;;0.13;0.13;;;8.70;99.90;;;;;;5074688;28;20261;-75
2021/01/19 10:32:13;;;;;;;2.97;0.95;;;8.70;99.90;;;;;;5075210;28;20520;-75
2021/01/19 10:34:44;;;;;;;0.10;0.10;;;8.70;99.90;;;;;;5074329;28;20206;-77
2021/01/19 10:37:11;;;;;;;0.30;0.30;;;8.70;99.90;;;;;;5074442;28;20173;-75
2021/01/19 10:39:52;;;;;;;0.38;0.32;;;8.80;99.90;;;;;;5074829;28;20201;-75
2021/01/19 10:42:33;;;;;;;0.22;0.22;;;8.80;99.90;;;;;;5056635;28;20634;-76
2021/01/19 10:45:01;;;;;;;0.32;0.32;;;8.90;99.90;;;;;;5074898;28;20190;-78
2021/01/19 10:47:26;;;;;;;1.45;0.80;;;8.90;99.90;;;;;;5074431;28;20185;-75
2021/01/19 10:49:52;;;;;;;0.25;0.25;;;9.00;99.90;;;;;;5074635;28;20610;-74
2021/01/19 10:52:18;;;;;;;0.10;0.10;;;8.80;99.90;;;;;;5074551;28;20560;-77
2021/01/19 10:54:44;;;;;;;0.73;0.73;;;8.90;99.90;;;;;;5074632;28;20202;-75
2021/01/19 10:57:10;;;;;;;0.30;0.30;;;8.90;99.90;;;;;;5074049;28;20190;-76
2021/01/19 10:59:37;;;;;;;0.43;0.43;;;9.00;99.90;;;;;;5072852;28;20194;-76
2021/01/19 11:02:06;;;;;;;0.20;0.20;;;9.20;99.90;;;;;;5073841;28;20220;-76
2021/01/19 11:04:31;;;;;;;0.82;0.82;;;9.20;99.90;;;;;;5074195;28;20182;-75
2021/01/19 11:07:00;;;;;;;0.10;0.10;;;9.00;99.90;;;;;;5072169;28;20546;-75
2021/01/19 11:09:25;;;;;;;2.35;0.52;;;9.00;99.90;;;;;;5073798;28;20173;-76
2021/01/19 11:11:51;;;;;;;0.10;0.10;;;9.00;99.90;;;;;;5073821;28;20171;-75
2021/01/19 11:14:17;;;;;;;0.22;0.22;;;9.00;99.90;;;;;;5074655;28;20166;-76
2021/01/19 11:16:45;;;;;;;0.40;0.40;;;9.00;99.90;;;;;;5075245;28;20186;-76
2021/01/19 11:21:42;;;;;;;0.20;0.20;;;9.00;99.90;;;;;;5053289;28;20288;-74
2021/01/19 11:24:10;;;;;;;0.10;0.10;;;9.00;99.90;;;;;;5054489;28;20163;-76
2021/01/19 11:26:38;;;;;;;0.20;0.20;;;8.90;99.90;;;;;;5072852;28;20193;-75
2021/01/19 11:29:05;;;;;;;0.30;0.30;;;8.90;99.90;;;;;;5074882;28;20158;-74
2021/01/19 11:31:31;;;;;;;0.40;0.40;;;9.00;99.90;;;;;;5074767;28;20288;-75
2021/01/19 11:34:02;;;;;;;0.45;0.40;;;8.90;99.90;;;;;;5074580;28;20216;-74
2021/01/19 11:36:33;;;;;;;0.43;0.40;;;8.90;99.90;;;;;;5074354;28;20277;-75
2021/01/19 11:39:00;;;;;;;1.00;0.88;;;8.90;99.90;;;;;;5074674;28;20190;-74
2021/01/19 11:41:27;;;;;;;0.20;0.20;;;8.90;99.90;;;;;;5081912;28;20165;-74
2021/01/19 11:43:54;;;;;;;0.22;0.22;;;9.00;99.90;;;;;;5090103;28;20169;-75
2021/01/19 11:46:24;;;;;;;0.20;0.20;;;8.90;99.90;;;;;;5091751;28;20190;-74
2021/01/19 11:48:51;;;;;;;0.15;0.15;;;8.90;99.90;;;;;;5091576;28;20170;-74
2021/01/19 11:51:28;;;;;;;0.30;0.30;;;9.00;99.90;;;;;;5094394;28;20162;-74
2021/01/19 11:53:56;;;;;;;0.22;0.22;;;9.00;99.90;;;;;;5094434;28;20166;-74
2021/01/19 11:56:38;;;;;;;0.20;0.20;;;9.10;99.90;;;;;;5094484;28;20214;-74
2021/01/19 11:59:05;;;;;;;0.85;0.85;;;9.00;99.90;;;;;;5094502;28;20194;-82
2021/01/19 12:01:31;;;;;;;0.43;0.40;;;9.00;99.90;;;;;;5094195;28;20190;-74
2021/01/19 12:03:57;;;;;;;0.70;0.70;;;9.10;99.90;;;;;;5094382;28;20663;-75
2021/01/19 12:06:22;;;;;;;5.00;1.10;;;9.00;99.90;;;;;;5095147;28;20197;-74
2021/01/19 12:08:49;;;;;;;0.13;0.13;;;9.00;99.90;;;;;;5094027;28;20215;-74
2021/01/19 12:11:15;;;;;;;0.50;0.50;;;9.10;99.90;;;;;;5094126;28;20177;-75
2021/01/19 12:13:41;;;;;;;0.30;0.30;;;9.10;99.90;;;;;;5094003;28;20170;-74
2021/01/19 12:16:09;;;;;;;0.57;0.57;;;9.20;99.90;;;;;;5093982;28;20189;-75
2021/01/19 12:18:35;;;;;;;0.20;0.20;;;9.10;99.90;;;;;;5093790;28;20673;-74
2021/01/19 12:21:02;;;;;;;0.40;0.40;;;9.10;99.90;;;;;;5094095;28;20217;-74
2021/01/19 12:23:28;;;;;;;0.30;0.30;;;9.20;99.90;;;;;;5093967;28;20519;-74
2021/01/19 12:25:58;;;;;;;0.30;0.30;;;9.10;99.90;;;;;;5093931;28;20190;-74
2021/01/19 12:28:24;;;;;;;0.40;0.40;;;9.30;99.90;;;;;;5093748;28;20180;-75
2021/01/19 12:30:51;;;;;;;0.38;0.38;;;9.30;99.90;;;;;;5093294;28;20215;-74
2021/01/19 12:33:19;;;;;;;0.32;0.32;;;9.30;99.90;;;;;;5093910;28;20262;-75
2021/01/19 12:35:45;;;;;;;1.75;0.73;;;9.30;99.90;;;;;;5093539;28;20185;-74
2021/01/19 12:38:11;;;;;;;0.45;0.45;;;9.30;99.90;;;;;;5093845;28;20173;-74
2021/01/19 12:40:39;;;;;;;0.70;0.38;;;9.30;99.90;;;;;;5093458;28;20224;-76
2021/01/19 12:43:05;;;;;;;0.28;0.28;;;9.30;99.90;;;;;;5093831;28;20150;-76
2021/01/19 12:45:30;;;;;;;0.85;0.80;;;9.30;99.90;;;;;;5093666;28;20645;-75
2021/01/19 12:47:56;;;;;;;0.75;0.52;;;9.30;99.90;;;;;;5093452;28;20686;-75
2021/01/19 12:50:21;;;;;;;1.45;0.88;;;9.30;99.90;;;;;;5093627;28;20201;-75
2021/01/19 12:52:49;;;;;;;0.63;0.50;;;9.40;99.90;;;;;;5093459;28;20716;-75
2021/01/19 12:55:14;;;;;;;0.40;0.40;;;9.40;99.90;;;;;;5093024;28;20689;-75
2021/01/19 12:57:40;;;;;;;0.20;0.20;;;9.40;99.90;;;;;;5092412;28;20248;-74
2021/01/19 13:00:07;;;;;;;0.40;0.40;;;9.30;99.90;;;;;;5092810;28;20262;-75
2021/01/19 13:02:34;;;;;;;0.32;0.32;;;9.30;99.90;;;;;;5093171;28;20197;-74
2021/01/19 13:05:02;;;;;;;0.30;0.30;;;9.40;99.90;;;;;;5093002;28;20220;-75
2021/01/19 13:07:28;;;;;;;0.90;0.90;;;9.30;99.90;;;;;;5093072;28;20162;-75
2021/01/19 13:09:54;;;;;;;0.88;0.60;;;9.30;99.90;;;;;;5093215;28;20481;-75
2021/01/19 13:12:20;;;;;;;0.30;0.30;;;9.30;99.90;;;;;;5092787;28;20158;-75